sensor_id;sensor_type;location;lat;lon;timestamp;pressure;altitude;pressure_sealevel;temperature;humidity
48810;BME280;40070;47.322;18.784;2023-01-16T00:01:45;996.84;;;7.30;72.70
48810;BME280;40070;47.322;18.784;2023-01-16T00:03:48;996.85;;;7.35;72.64
48810;BME280;40070;47.322;18.784;2023-01-16T00:05:50;996.84;;;7.38;72.21
48810;BME280;40070;47.322;18.784;2023-01-16T00:07:53;996.81;;;7.44;72.05
48810;BME280;40070;47.322;18.784;2023-01-16T00:09:55;996.70;;;7.37;72.23
48810;BME280;40070;47.322;18.784;2023-01-16T00:11:57;996.56;;;7.33;72.48
48810;BME280;40070;47.322;18.784;2023-01-16T00:14:00;996.60;;;7.28;72.57
48810;BME280;40070;47.322;18.784;2023-01-16T00:16:02;996.69;;;6.92;73.86
48810;BME280;40070;47.322;18.784;2023-01-16T00:18:04;996.62;;;7.11;73.15
48810;BME280;40070;47.322;18.784;2023-01-16T00:20:07;996.63;;;6.83;73.94
48810;BME280;40070;47.322;18.784;2023-01-16T00:22:10;996.59;;;6.95;73.85
48810;BME280;40070;47.322;18.784;2023-01-16T00:24:12;996.65;;;6.89;73.85
48810;BME280;40070;47.322;18.784;2023-01-16T00:26:14;996.60;;;7.12;73.35
48810;BME280;40070;47.322;18.784;2023-01-16T00:28:17;996.51;;;6.91;73.37
48810;BME280;40070;47.322;18.784;2023-01-16T00:30:19;996.49;;;6.63;74.51
48810;BME280;40070;47.322;18.784;2023-01-16T00:32:21;996.42;;;6.81;74.20
48810;BME280;40070;47.322;18.784;2023-01-16T00:34:24;996.45;;;6.77;74.03
48810;BME280;40070;47.322;18.784;2023-01-16T00:36:26;996.49;;;6.79;74.03
48810;BME280;40070;47.322;18.784;2023-01-16T00:38:29;996.46;;;6.46;75.16
48810;BME280;40070;47.322;18.784;2023-01-16T00:40:31;996.41;;;6.62;75.19
48810;BME280;40070;47.322;18.784;2023-01-16T00:42:33;996.41;;;6.87;74.40
48810;BME280;40070;47.322;18.784;2023-01-16T00:44:36;996.48;;;6.69;74.23
48810;BME280;40070;47.322;18.784;2023-01-16T00:46:38;996.55;;;6.67;74.99
48810;BME280;40070;47.322;18.784;2023-01-16T00:48:40;996.55;;;6.86;74.58
48810;BME280;40070;47.322;18.784;2023-01-16T00:50:43;996.43;;;7.00;74.06
48810;BME280;40070;47.322;18.784;2023-01-16T00:52:45;996.46;;;6.98;74.09
48810;BME280;40070;47.322;18.784;2023-01-16T00:54:47;996.45;;;6.98;74.14
48810;BME280;40070;47.322;18.784;2023-01-16T00:56:50;996.49;;;7.18;73.41
48810;BME280;40070;47.322;18.784;2023-01-16T00:58:53;996.53;;;7.02;73.56
48810;BME280;40070;47.322;18.784;2023-01-16T01:00:55;996.52;;;7.12;73.51
48810;BME280;40070;47.322;18.784;2023-01-16T01:02:57;996.49;;;7.20;73.32
48810;BME280;40070;47.322;18.784;2023-01-16T01:05:00;996.47;;;7.04;73.50
48810;BME280;40070;47.322;18.784;2023-01-16T01:07:02;996.35;;;6.99;73.77
48810;BME280;40070;47.322;18.784;2023-01-16T01:09:04;996.22;;;7.09;73.60
48810;BME280;40070;47.322;18.784;2023-01-16T01:11:08;996.13;;;7.18;73.27
48810;BME280;40070;47.322;18.784;2023-01-16T01:13:10;996.16;;;6.50;74.88
48810;BME280;40070;47.322;18.784;2023-01-16T01:15:13;996.29;;;6.44;75.75
48810;BME280;40070;47.322;18.784;2023-01-16T01:17:16;996.33;;;6.66;75.04
48810;BME280;40070;47.322;18.784;2023-01-16T01:19:18;996.38;;;6.83;74.18
48810;BME280;40070;47.322;18.784;2023-01-16T01:21:20;996.39;;;6.77;74.26
48810;BME280;40070;47.322;18.784;2023-01-16T01:23:23;996.29;;;6.85;74.10
48810;BME280;40070;47.322;18.784;2023-01-16T01:25:25;996.30;;;6.86;74.11
48810;BME280;40070;47.322;18.784;2023-01-16T01:27:28;996.29;;;6.84;73.95
48810;BME280;40070;47.322;18.784;2023-01-16T01:29:30;996.37;;;6.81;74.18
48810;BME280;40070;47.322;18.784;2023-01-16T01:31:32;996.40;;;6.94;73.55
48810;BME280;40070;47.322;18.784;2023-01-16T01:33:35;996.41;;;6.88;73.38
48810;BME280;40070;47.322;18.784;2023-01-16T01:35:37;996.47;;;6.91;73.61
48810;BME280;40070;47.322;18.784;2023-01-16T01:37:40;996.48;;;6.97;73.58
48810;BME280;40070;47.322;18.784;2023-01-16T01:39:42;996.54;;;7.07;73.45
48810;BME280;40070;47.322;18.784;2023-01-16T01:41:45;996.51;;;7.12;72.98
48810;BME280;40070;47.322;18.784;2023-01-16T01:43:49;996.49;;;6.77;74.11
48810;BME280;40070;47.322;18.784;2023-01-16T01:45:52;996.41;;;6.91;74.19
48810;BME280;40070;47.322;18.784;2023-01-16T01:51:01;996.36;;;7.08;73.76
48810;BME280;40070;47.322;18.784;2023-01-16T01:52:30;996.33;;;7.05;73.68
48810;BME280;40070;47.322;18.784;2023-01-16T01:54:44;996.22;;;7.09;73.77
48810;BME280;40070;47.322;18.784;2023-01-16T01:56:49;996.16;;;7.14;73.80
48810;BME280;40070;47.322;18.784;2023-01-16T01:58:55;996.08;;;7.17;73.65
48810;BME280;40070;47.322;18.784;2023-01-16T02:00:58;996.07;;;6.99;73.61
48810;BME280;40070;47.322;18.784;2023-01-16T02:03:06;996.06;;;6.75;74.37
48810;BME280;40070;47.322;18.784;2023-01-16T02:05:09;996.05;;;6.67;74.75
48810;BME280;40070;47.322;18.784;2023-01-16T02:07:13;996.03;;;6.76;74.78
48810;BME280;40070;47.322;18.784;2023-01-16T02:09:17;995.97;;;6.84;74.17
48810;BME280;40070;47.322;18.784;2023-01-16T02:11:27;995.88;;;6.88;74.00
48810;BME280;40070;47.322;18.784;2023-01-16T02:13:32;995.90;;;6.79;74.24
48810;BME280;40070;47.322;18.784;2023-01-16T02:15:35;995.89;;;6.53;75.10
48810;BME280;40070;47.322;18.784;2023-01-16T02:17:43;995.79;;;6.31;75.74
48810;BME280;40070;47.322;18.784;2023-01-16T02:19:51;995.72;;;6.47;75.94
48810;BME280;40070;47.322;18.784;2023-01-16T02:24:30;995.58;;;6.70;74.58
48810;BME280;40070;47.322;18.784;2023-01-16T02:31:43;995.35;;;6.59;74.88
48810;BME280;40070;47.322;18.784;2023-01-16T02:36:21;995.41;;;6.23;76.38
48810;BME280;40070;47.322;18.784;2023-01-16T02:38:35;995.49;;;6.52;75.28
48810;BME280;40070;47.322;18.784;2023-01-16T02:40:47;995.52;;;6.38;75.03
48810;BME280;40070;47.322;18.784;2023-01-16T02:47:44;995.33;;;6.80;73.56
48810;BME280;40070;47.322;18.784;2023-01-16T02:49:50;995.22;;;6.81;73.71
48810;BME280;40070;47.322;18.784;2023-01-16T02:51:57;995.20;;;6.45;74.81
48810;BME280;40070;47.322;18.784;2023-01-16T02:54:08;995.18;;;6.38;75.46
48810;BME280;40070;47.322;18.784;2023-01-16T02:56:14;995.18;;;6.31;75.80
48810;BME280;40070;47.322;18.784;2023-01-16T02:58:18;995.23;;;6.29;75.26
48810;BME280;40070;47.322;18.784;2023-01-16T03:00:21;995.17;;;6.21;75.80
48810;BME280;40070;47.322;18.784;2023-01-16T03:02:23;995.11;;;6.54;74.94
48810;BME280;40070;47.322;18.784;2023-01-16T03:04:39;995.12;;;6.59;74.52
48810;BME280;40070;47.322;18.784;2023-01-16T03:06:43;995.04;;;6.62;74.49
48810;BME280;40070;47.322;18.784;2023-01-16T03:09:09;995.03;;;6.35;75.33
48810;BME280;40070;47.322;18.784;2023-01-16T03:11:19;994.99;;;6.43;75.63
48810;BME280;40070;47.322;18.784;2023-01-16T03:13:36;995.01;;;6.62;74.55
48810;BME280;40070;47.322;18.784;2023-01-16T03:18:15;994.99;;;6.61;74.42
48810;BME280;40070;47.322;18.784;2023-01-16T03:20:25;994.97;;;6.70;74.18
48810;BME280;40070;47.322;18.784;2023-01-16T03:22:39;994.94;;;6.88;73.33
48810;BME280;40070;47.322;18.784;2023-01-16T03:27:10;994.87;;;6.91;73.01
48810;BME280;40070;47.322;18.784;2023-01-16T03:29:26;994.82;;;6.69;73.37
48810;BME280;40070;47.322;18.784;2023-01-16T03:31:42;994.76;;;6.46;74.32
48810;BME280;40070;47.322;18.784;2023-01-16T03:34:04;994.78;;;6.50;74.65
48810;BME280;40070;47.322;18.784;2023-01-16T03:36:12;994.70;;;6.45;74.87
48810;BME280;40070;47.322;18.784;2023-01-16T03:38:17;994.67;;;6.44;74.63
48810;BME280;40070;47.322;18.784;2023-01-16T03:40:22;994.63;;;6.57;74.52
48810;BME280;40070;47.322;18.784;2023-01-16T03:42:30;994.63;;;6.62;73.87
48810;BME280;40070;47.322;18.784;2023-01-16T03:44:39;994.62;;;6.72;73.63
48810;BME280;40070;47.322;18.784;2023-01-16T03:46:44;994.65;;;6.67;73.33
48810;BME280;40070;47.322;18.784;2023-01-16T03:48:51;994.59;;;6.09;75.79
48810;BME280;40070;47.322;18.784;2023-01-16T03:50:59;994.55;;;6.17;75.59
48810;BME280;40070;47.322;18.784;2023-01-16T03:53:07;994.45;;;6.31;75.25
48810;BME280;40070;47.322;18.784;2023-01-16T03:57:30;994.49;;;6.79;73.52
48810;BME280;40070;47.322;18.784;2023-01-16T03:59:35;994.44;;;6.80;73.00
48810;BME280;40070;47.322;18.784;2023-01-16T04:01:40;994.38;;;6.64;73.60
48810;BME280;40070;47.322;18.784;2023-01-16T04:03:54;994.31;;;6.75;73.20
48810;BME280;40070;47.322;18.784;2023-01-16T04:06:12;994.29;;;6.75;73.26
48810;BME280;40070;47.322;18.784;2023-01-16T04:08:19;994.27;;;6.85;72.85
48810;BME280;40070;47.322;18.784;2023-01-16T04:10:25;994.21;;;6.74;73.31
48810;BME280;40070;47.322;18.784;2023-01-16T04:12:30;994.16;;;6.74;73.22
48810;BME280;40070;47.322;18.784;2023-01-16T04:14:34;994.10;;;6.76;73.43
48810;BME280;40070;47.322;18.784;2023-01-16T04:16:38;994.16;;;6.70;73.74
48810;BME280;40070;47.322;18.784;2023-01-16T04:18:41;994.18;;;6.78;73.43
48810;BME280;40070;47.322;18.784;2023-01-16T04:20:45;994.12;;;6.64;73.37
48810;BME280;40070;47.322;18.784;2023-01-16T04:22:49;994.14;;;6.66;73.48
48810;BME280;40070;47.322;18.784;2023-01-16T04:24:52;994.07;;;6.83;72.74
48810;BME280;40070;47.322;18.784;2023-01-16T04:26:55;994.05;;;6.81;72.90
48810;BME280;40070;47.322;18.784;2023-01-16T04:28:58;994.03;;;6.83;72.73
48810;BME280;40070;47.322;18.784;2023-01-16T04:31:00;994.01;;;6.86;72.83
48810;BME280;40070;47.322;18.784;2023-01-16T04:33:03;993.97;;;6.71;73.09
48810;BME280;40070;47.322;18.784;2023-01-16T04:35:05;993.94;;;6.80;72.87
48810;BME280;40070;47.322;18.784;2023-01-16T04:37:08;993.91;;;6.51;73.43
48810;BME280;40070;47.322;18.784;2023-01-16T04:39:11;993.87;;;6.37;74.63
48810;BME280;40070;47.322;18.784;2023-01-16T04:41:13;993.80;;;6.40;74.51
48810;BME280;40070;47.322;18.784;2023-01-16T04:43:16;993.76;;;6.38;74.66
48810;BME280;40070;47.322;18.784;2023-01-16T04:45:18;993.76;;;6.57;74.32
48810;BME280;40070;47.322;18.784;2023-01-16T04:47:20;993.73;;;6.70;73.76
48810;BME280;40070;47.322;18.784;2023-01-16T04:49:23;993.77;;;6.61;73.61
48810;BME280;40070;47.322;18.784;2023-01-16T04:51:25;993.73;;;6.56;73.86
48810;BME280;40070;47.322;18.784;2023-01-16T04:53:27;993.68;;;6.74;73.34
48810;BME280;40070;47.322;18.784;2023-01-16T04:55:30;993.60;;;6.69;72.87
48810;BME280;40070;47.322;18.784;2023-01-16T04:57:32;993.52;;;6.69;73.18
48810;BME280;40070;47.322;18.784;2023-01-16T04:59:35;993.46;;;6.56;73.46
48810;BME280;40070;47.322;18.784;2023-01-16T05:01:37;993.43;;;6.13;75.02
48810;BME280;40070;47.322;18.784;2023-01-16T05:03:39;993.46;;;5.94;75.65
48810;BME280;40070;47.322;18.784;2023-01-16T05:05:42;993.43;;;5.80;76.85
48810;BME280;40070;47.322;18.784;2023-01-16T05:07:45;993.48;;;5.99;76.40
48810;BME280;40070;47.322;18.784;2023-01-16T05:09:47;993.52;;;6.33;75.22
48810;BME280;40070;47.322;18.784;2023-01-16T05:11:49;993.50;;;6.39;74.72
48810;BME280;40070;47.322;18.784;2023-01-16T05:13:52;993.49;;;5.96;75.76
48810;BME280;40070;47.322;18.784;2023-01-16T05:15:54;993.43;;;6.04;75.92
48810;BME280;40070;47.322;18.784;2023-01-16T05:17:56;993.40;;;6.31;75.04
48810;BME280;40070;47.322;18.784;2023-01-16T05:19:59;993.38;;;6.52;74.34
48810;BME280;40070;47.322;18.784;2023-01-16T05:22:01;993.39;;;6.63;73.77
48810;BME280;40070;47.322;18.784;2023-01-16T05:24:04;993.40;;;6.48;73.84
48810;BME280;40070;47.322;18.784;2023-01-16T05:26:06;993.40;;;6.41;74.12
48810;BME280;40070;47.322;18.784;2023-01-16T05:28:09;993.37;;;6.47;74.13
48810;BME280;40070;47.322;18.784;2023-01-16T05:30:12;993.38;;;5.98;75.70
48810;BME280;40070;47.322;18.784;2023-01-16T05:32:14;993.38;;;5.86;76.22
48810;BME280;40070;47.322;18.784;2023-01-16T05:34:16;993.37;;;5.91;76.57
48810;BME280;40070;47.322;18.784;2023-01-16T05:36:19;993.36;;;6.13;75.91
48810;BME280;40070;47.322;18.784;2023-01-16T05:38:21;993.33;;;6.30;75.49
48810;BME280;40070;47.322;18.784;2023-01-16T05:40:23;993.32;;;6.16;75.44
48810;BME280;40070;47.322;18.784;2023-01-16T05:42:26;993.29;;;5.91;76.25
48810;BME280;40070;47.322;18.784;2023-01-16T05:44:28;993.31;;;5.63;77.44
48810;BME280;40070;47.322;18.784;2023-01-16T05:46:30;993.28;;;5.48;78.88
48810;BME280;40070;47.322;18.784;2023-01-16T05:48:33;993.24;;;5.35;80.02
48810;BME280;40070;47.322;18.784;2023-01-16T05:50:35;993.18;;;5.29;80.59
48810;BME280;40070;47.322;18.784;2023-01-16T05:52:38;993.18;;;5.47;80.40
48810;BME280;40070;47.322;18.784;2023-01-16T05:54:40;993.16;;;5.72;79.73
48810;BME280;40070;47.322;18.784;2023-01-16T05:56:42;993.18;;;5.55;79.84
48810;BME280;40070;47.322;18.784;2023-01-16T05:58:45;993.15;;;5.68;79.98
48810;BME280;40070;47.322;18.784;2023-01-16T06:00:47;993.19;;;5.68;79.72
48810;BME280;40070;47.322;18.784;2023-01-16T06:02:49;993.25;;;5.82;79.70
48810;BME280;40070;47.322;18.784;2023-01-16T06:04:52;993.23;;;6.10;78.79
48810;BME280;40070;47.322;18.784;2023-01-16T06:06:54;993.22;;;6.32;77.79
48810;BME280;40070;47.322;18.784;2023-01-16T06:08:56;993.19;;;6.26;77.30
48810;BME280;40070;47.322;18.784;2023-01-16T06:10:59;993.17;;;6.09;78.03
48810;BME280;40070;47.322;18.784;2023-01-16T06:13:01;993.13;;;5.99;78.27
48810;BME280;40070;47.322;18.784;2023-01-16T06:15:04;993.07;;;5.94;78.83
48810;BME280;40070;47.322;18.784;2023-01-16T06:17:06;993.06;;;6.45;77.29
48810;BME280;40070;47.322;18.784;2023-01-16T06:19:09;993.04;;;6.52;76.63
48810;BME280;40070;47.322;18.784;2023-01-16T06:21:11;993.11;;;6.49;76.52
48810;BME280;40070;47.322;18.784;2023-01-16T06:23:14;993.11;;;6.66;75.81
48810;BME280;40070;47.322;18.784;2023-01-16T06:25:16;993.01;;;6.56;75.61
48810;BME280;40070;47.322;18.784;2023-01-16T06:27:18;992.97;;;6.62;75.91
48810;BME280;40070;47.322;18.784;2023-01-16T06:29:21;993.03;;;6.10;77.39
48810;BME280;40070;47.322;18.784;2023-01-16T06:31:23;993.04;;;6.14;77.43
48810;BME280;40070;47.322;18.784;2023-01-16T06:33:25;993.03;;;6.41;76.62
48810;BME280;40070;47.322;18.784;2023-01-16T06:35:28;993.01;;;6.39;75.99
48810;BME280;40070;47.322;18.784;2023-01-16T06:37:30;993.05;;;6.48;76.31
48810;BME280;40070;47.322;18.784;2023-01-16T06:39:32;992.94;;;6.60;75.83
48810;BME280;40070;47.322;18.784;2023-01-16T06:41:35;992.95;;;6.64;75.18
48810;BME280;40070;47.322;18.784;2023-01-16T06:43:37;993.03;;;6.69;74.77
48810;BME280;40070;47.322;18.784;2023-01-16T06:45:39;993.00;;;6.76;74.49
48810;BME280;40070;47.322;18.784;2023-01-16T06:47:42;992.90;;;6.83;74.42
48810;BME280;40070;47.322;18.784;2023-01-16T06:49:44;992.94;;;6.55;75.22
48810;BME280;40070;47.322;18.784;2023-01-16T06:51:46;993.01;;;6.65;75.01
48810;BME280;40070;47.322;18.784;2023-01-16T06:53:49;992.98;;;6.59;75.04
48810;BME280;40070;47.322;18.784;2023-01-16T06:55:51;993.03;;;6.66;75.52
48810;BME280;40070;47.322;18.784;2023-01-16T06:57:53;993.04;;;6.62;75.39
48810;BME280;40070;47.322;18.784;2023-01-16T06:59:56;993.05;;;6.76;74.99
48810;BME280;40070;47.322;18.784;2023-01-16T07:01:58;993.06;;;6.70;74.96
48810;BME280;40070;47.322;18.784;2023-01-16T07:04:00;993.05;;;6.71;75.07
48810;BME280;40070;47.322;18.784;2023-01-16T07:06:03;993.03;;;6.75;75.00
48810;BME280;40070;47.322;18.784;2023-01-16T07:08:06;993.01;;;6.43;76.10
48810;BME280;40070;47.322;18.784;2023-01-16T07:10:08;993.02;;;6.68;75.61
48810;BME280;40070;47.322;18.784;2023-01-16T07:12:11;993.02;;;6.80;74.82
48810;BME280;40070;47.322;18.784;2023-01-16T07:14:13;993.03;;;6.94;74.33
48810;BME280;40070;47.322;18.784;2023-01-16T07:16:16;993.00;;;6.84;74.44
48810;BME280;40070;47.322;18.784;2023-01-16T07:18:19;992.97;;;6.89;74.46
48810;BME280;40070;47.322;18.784;2023-01-16T07:20:21;992.93;;;6.86;74.68
48810;BME280;40070;47.322;18.784;2023-01-16T07:22:24;992.86;;;6.77;74.38
48810;BME280;40070;47.322;18.784;2023-01-16T07:24:26;992.85;;;6.44;75.78
48810;BME280;40070;47.322;18.784;2023-01-16T07:26:30;992.79;;;6.56;75.78
48810;BME280;40070;47.322;18.784;2023-01-16T07:28:33;992.79;;;6.19;77.38
48810;BME280;40070;47.322;18.784;2023-01-16T07:30:36;992.77;;;6.27;77.69
48810;BME280;40070;47.322;18.784;2023-01-16T07:32:38;992.74;;;6.62;76.44
48810;BME280;40070;47.322;18.784;2023-01-16T07:34:41;992.63;;;6.60;76.69
48810;BME280;40070;47.322;18.784;2023-01-16T07:36:43;992.58;;;6.56;76.51
48810;BME280;40070;47.322;18.784;2023-01-16T07:38:45;992.55;;;6.58;76.71
48810;BME280;40070;47.322;18.784;2023-01-16T07:40:48;992.51;;;6.57;76.29
48810;BME280;40070;47.322;18.784;2023-01-16T07:42:50;992.46;;;6.37;77.79
48810;BME280;40070;47.322;18.784;2023-01-16T07:44:52;992.37;;;6.60;76.96
48810;BME280;40070;47.322;18.784;2023-01-16T07:46:55;992.31;;;6.48;77.50
48810;BME280;40070;47.322;18.784;2023-01-16T07:48:57;992.23;;;6.67;77.41
48810;BME280;40070;47.322;18.784;2023-01-16T07:51:00;992.09;;;6.88;77.02
48810;BME280;40070;47.322;18.784;2023-01-16T07:53:02;992.05;;;6.68;77.55
48810;BME280;40070;47.322;18.784;2023-01-16T07:55:05;992.09;;;6.42;78.63
48810;BME280;40070;47.322;18.784;2023-01-16T07:57:07;992.04;;;6.46;78.75
48810;BME280;40070;47.322;18.784;2023-01-16T07:59:09;992.00;;;6.23;79.78
48810;BME280;40070;47.322;18.784;2023-01-16T08:01:12;991.95;;;6.51;79.38
48810;BME280;40070;47.322;18.784;2023-01-16T08:03:14;992.00;;;6.45;79.85
48810;BME280;40070;47.322;18.784;2023-01-16T08:05:17;991.98;;;6.45;79.15
48810;BME280;40070;47.322;18.784;2023-01-16T08:07:19;991.96;;;6.69;78.52
48810;BME280;40070;47.322;18.784;2023-01-16T08:09:21;991.84;;;6.44;79.37
48810;BME280;40070;47.322;18.784;2023-01-16T08:11:24;991.83;;;6.17;80.48
48810;BME280;40070;47.322;18.784;2023-01-16T08:13:26;991.84;;;6.01;81.13
48810;BME280;40070;47.322;18.784;2023-01-16T08:15:29;991.79;;;6.27;80.97
48810;BME280;40070;47.322;18.784;2023-01-16T08:17:31;991.73;;;6.34;80.92
48810;BME280;40070;47.322;18.784;2023-01-16T08:19:33;991.73;;;6.29;80.56
48810;BME280;40070;47.322;18.784;2023-01-16T08:21:36;991.71;;;6.34;81.13
48810;BME280;40070;47.322;18.784;2023-01-16T08:23:38;991.69;;;6.38;80.89
48810;BME280;40070;47.322;18.784;2023-01-16T08:25:40;991.58;;;6.25;81.12
48810;BME280;40070;47.322;18.784;2023-01-16T08:27:43;991.53;;;6.49;80.82
48810;BME280;40070;47.322;18.784;2023-01-16T08:29:45;991.47;;;6.48;80.30
48810;BME280;40070;47.322;18.784;2023-01-16T08:31:48;991.41;;;6.37;80.88
48810;BME280;40070;47.322;18.784;2023-01-16T08:33:50;991.34;;;6.68;79.87
48810;BME280;40070;47.322;18.784;2023-01-16T08:35:52;991.35;;;6.69;79.90
48810;BME280;40070;47.322;18.784;2023-01-16T08:37:55;991.29;;;6.56;79.94
48810;BME280;40070;47.322;18.784;2023-01-16T08:39:57;991.26;;;6.54;80.31
48810;BME280;40070;47.322;18.784;2023-01-16T08:42:00;991.20;;;6.63;79.93
48810;BME280;40070;47.322;18.784;2023-01-16T08:44:02;991.15;;;6.98;79.34
48810;BME280;40070;47.322;18.784;2023-01-16T08:46:07;991.14;;;7.04;78.50
48810;BME280;40070;47.322;18.784;2023-01-16T08:48:15;991.02;;;7.06;78.25
48810;BME280;40070;47.322;18.784;2023-01-16T08:50:20;990.95;;;7.13;78.36
48810;BME280;40070;47.322;18.784;2023-01-16T08:52:22;990.90;;;7.12;77.98
48810;BME280;40070;47.322;18.784;2023-01-16T08:54:25;990.90;;;7.24;77.69
48810;BME280;40070;47.322;18.784;2023-01-16T08:56:27;990.81;;;7.44;76.91
48810;BME280;40070;47.322;18.784;2023-01-16T08:58:30;990.82;;;7.24;77.19
48810;BME280;40070;47.322;18.784;2023-01-16T09:00:33;990.73;;;6.99;77.89
48810;BME280;40070;47.322;18.784;2023-01-16T09:02:35;990.73;;;7.18;77.72
48810;BME280;40070;47.322;18.784;2023-01-16T09:04:38;990.62;;;7.21;77.69
48810;BME280;40070;47.322;18.784;2023-01-16T09:06:40;990.58;;;7.00;77.42
48810;BME280;40070;47.322;18.784;2023-01-16T09:08:42;990.57;;;7.13;77.18
48810;BME280;40070;47.322;18.784;2023-01-16T09:10:45;990.57;;;7.26;76.60
48810;BME280;40070;47.322;18.784;2023-01-16T09:12:47;990.56;;;7.21;76.88
48810;BME280;40070;47.322;18.784;2023-01-16T09:14:50;990.50;;;7.16;76.91
48810;BME280;40070;47.322;18.784;2023-01-16T09:16:52;990.43;;;7.02;77.49
48810;BME280;40070;47.322;18.784;2023-01-16T09:18:54;990.35;;;6.86;78.26
48810;BME280;40070;47.322;18.784;2023-01-16T09:20:57;990.25;;;6.85;78.53
48810;BME280;40070;47.322;18.784;2023-01-16T09:22:59;990.23;;;6.92;78.58
48810;BME280;40070;47.322;18.784;2023-01-16T09:25:02;990.17;;;6.94;78.38
48810;BME280;40070;47.322;18.784;2023-01-16T09:27:04;990.13;;;6.88;78.89
48810;BME280;40070;47.322;18.784;2023-01-16T09:29:07;990.07;;;7.14;77.98
48810;BME280;40070;47.322;18.784;2023-01-16T09:31:09;990.02;;;7.10;78.02
48810;BME280;40070;47.322;18.784;2023-01-16T09:33:12;989.97;;;6.45;78.95
48810;BME280;40070;47.322;18.784;2023-01-16T09:35:14;989.96;;;6.60;79.49
48810;BME280;40070;47.322;18.784;2023-01-16T09:37:17;989.91;;;6.58;80.21
48810;BME280;40070;47.322;18.784;2023-01-16T09:39:19;989.85;;;6.54;80.11
48810;BME280;40070;47.322;18.784;2023-01-16T09:41:21;989.88;;;6.67;79.69
48810;BME280;40070;47.322;18.784;2023-01-16T09:43:35;989.88;;;6.77;78.68
48810;BME280;40070;47.322;18.784;2023-01-16T09:45:38;989.85;;;6.53;79.08
48810;BME280;40070;47.322;18.784;2023-01-16T09:47:41;989.78;;;6.48;79.66
48810;BME280;40070;47.322;18.784;2023-01-16T09:49:45;989.67;;;6.41;79.53
48810;BME280;40070;47.322;18.784;2023-01-16T09:51:53;989.57;;;6.35;79.17
48810;BME280;40070;47.322;18.784;2023-01-16T09:53:58;989.57;;;6.28;79.50
48810;BME280;40070;47.322;18.784;2023-01-16T09:56:02;989.48;;;6.21;80.04
48810;BME280;40070;47.322;18.784;2023-01-16T09:58:05;989.44;;;6.22;80.88
48810;BME280;40070;47.322;18.784;2023-01-16T10:00:07;989.39;;;6.39;79.86
48810;BME280;40070;47.322;18.784;2023-01-16T10:04:34;989.24;;;6.65;79.34
48810;BME280;40070;47.322;18.784;2023-01-16T10:06:39;989.19;;;6.61;78.92
48810;BME280;40070;47.322;18.784;2023-01-16T10:11:37;989.13;;;6.94;78.75
48810;BME280;40070;47.322;18.784;2023-01-16T10:13:33;989.06;;;6.55;79.76
48810;BME280;40070;47.322;18.784;2023-01-16T10:15:41;989.05;;;6.76;79.58
48810;BME280;40070;47.322;18.784;2023-01-16T10:22:27;988.92;;;6.61;78.99
48810;BME280;40070;47.322;18.784;2023-01-16T10:24:38;988.86;;;6.77;78.42
48810;BME280;40070;47.322;18.784;2023-01-16T10:26:49;988.79;;;6.57;78.38
48810;BME280;40070;47.322;18.784;2023-01-16T10:31:15;988.69;;;6.66;79.20
48810;BME280;40070;47.322;18.784;2023-01-16T10:33:23;988.63;;;6.55;79.39
48810;BME280;40070;47.322;18.784;2023-01-16T10:35:31;988.57;;;6.63;78.83
48810;BME280;40070;47.322;18.784;2023-01-16T10:37:35;988.50;;;6.71;79.29
48810;BME280;40070;47.322;18.784;2023-01-16T10:39:37;988.47;;;6.75;79.01
48810;BME280;40070;47.322;18.784;2023-01-16T10:41:49;988.38;;;6.78;78.61
48810;BME280;40070;47.322;18.784;2023-01-16T10:43:52;988.39;;;6.68;78.83
48810;BME280;40070;47.322;18.784;2023-01-16T10:45:55;988.28;;;6.67;79.37
48810;BME280;40070;47.322;18.784;2023-01-16T10:48:01;988.26;;;6.42;80.20
48810;BME280;40070;47.322;18.784;2023-01-16T10:50:04;988.14;;;6.52;79.99
48810;BME280;40070;47.322;18.784;2023-01-16T10:52:07;988.11;;;6.69;79.70
48810;BME280;40070;47.322;18.784;2023-01-16T10:54:09;988.03;;;6.50;79.79
48810;BME280;40070;47.322;18.784;2023-01-16T10:56:12;988.07;;;6.54;79.99
48810;BME280;40070;47.322;18.784;2023-01-16T10:58:30;988.01;;;6.45;80.79
48810;BME280;40070;47.322;18.784;2023-01-16T11:00:37;987.96;;;6.43;81.09
48810;BME280;40070;47.322;18.784;2023-01-16T11:02:42;987.86;;;6.57;80.28
48810;BME280;40070;47.322;18.784;2023-01-16T11:04:47;987.83;;;6.60;80.52
48810;BME280;40070;47.322;18.784;2023-01-16T11:06:50;987.77;;;6.54;80.80
48810;BME280;40070;47.322;18.784;2023-01-16T11:09:03;987.73;;;6.89;79.83
48810;BME280;40070;47.322;18.784;2023-01-16T11:11:06;987.64;;;6.79;79.29
48810;BME280;40070;47.322;18.784;2023-01-16T11:13:14;987.55;;;6.94;78.77
48810;BME280;40070;47.322;18.784;2023-01-16T11:15:20;987.49;;;6.91;78.28
48810;BME280;40070;47.322;18.784;2023-01-16T11:17:27;987.42;;;6.72;79.36
48810;BME280;40070;47.322;18.784;2023-01-16T11:19:30;987.40;;;6.51;80.73
48810;BME280;40070;47.322;18.784;2023-01-16T11:21:42;987.23;;;6.79;80.01
48810;BME280;40070;47.322;18.784;2023-01-16T11:23:46;987.18;;;6.74;80.03
48810;BME280;40070;47.322;18.784;2023-01-16T11:25:51;987.25;;;6.93;79.53
48810;BME280;40070;47.322;18.784;2023-01-16T11:27:55;987.21;;;7.01;79.14
48810;BME280;40070;47.322;18.784;2023-01-16T11:29:57;987.19;;;6.76;79.51
48810;BME280;40070;47.322;18.784;2023-01-16T11:32:02;987.19;;;6.72;79.56
48810;BME280;40070;47.322;18.784;2023-01-16T11:34:10;987.13;;;6.74;79.22
48810;BME280;40070;47.322;18.784;2023-01-16T11:36:15;987.10;;;6.73;79.61
48810;BME280;40070;47.322;18.784;2023-01-16T11:38:17;987.04;;;6.85;79.16
48810;BME280;40070;47.322;18.784;2023-01-16T11:40:21;987.01;;;6.65;79.76
48810;BME280;40070;47.322;18.784;2023-01-16T11:42:24;986.97;;;6.55;80.51
48810;BME280;40070;47.322;18.784;2023-01-16T11:44:27;986.88;;;6.69;80.16
48810;BME280;40070;47.322;18.784;2023-01-16T11:46:32;986.78;;;6.52;80.48
48810;BME280;40070;47.322;18.784;2023-01-16T11:48:42;986.71;;;6.66;79.99
48810;BME280;40070;47.322;18.784;2023-01-16T11:50:44;986.64;;;6.61;79.22
48810;BME280;40070;47.322;18.784;2023-01-16T11:52:49;986.61;;;6.57;80.33